createdAt,value
2018-04-25T00:01:18.185Z,67.50
2018-04-25T00:03:45.647Z,67.40
2018-04-25T00:06:13.100Z,67.40
2018-04-25T00:08:40.652Z,67.60
2018-04-25T00:11:08.117Z,67.60
2018-04-25T00:13:35.630Z,67.60
2018-04-25T00:16:03.093Z,68.00
2018-04-25T00:18:30.588Z,67.40
2018-04-25T00:20:58.044Z,67.50
2018-04-25T00:23:25.605Z,67.50
2018-04-25T00:25:53.169Z,67.70
2018-04-25T00:28:20.725Z,67.90
2018-04-25T00:30:48.280Z,67.80
2018-04-25T00:33:15.745Z,68.00
2018-04-25T00:35:43.308Z,68.30
2018-04-25T00:38:10.765Z,68.20
2018-04-25T00:40:38.325Z,68.10
2018-04-25T00:43:05.780Z,68.30
2018-04-25T00:45:33.240Z,68.20
2018-04-25T00:48:00.875Z,68.70
2018-04-25T00:50:28.257Z,69.00
2018-04-25T00:52:55.722Z,68.80
2018-04-25T00:55:23.273Z,68.70
2018-04-25T00:57:50.841Z,68.70
2018-04-25T01:00:18.394Z,69.10
2018-04-25T01:02:45.848Z,69.70
2018-04-25T01:05:13.420Z,69.10
2018-04-25T01:07:40.977Z,68.90
2018-04-25T01:10:08.443Z,68.90
2018-04-25T01:12:35.994Z,69.00
2018-04-25T01:15:03.544Z,69.10
2018-04-25T01:17:30.924Z,69.10
2018-04-25T01:19:59.190Z,69.00
2018-04-25T01:22:26.744Z,69.00
2018-04-25T01:24:56.053Z,69.10
2018-04-25T01:27:23.608Z,69.00
2018-04-25T01:29:51.168Z,69.10
2018-04-25T01:32:18.628Z,69.10
2018-04-25T01:34:47.517Z,69.20
2018-04-25T01:37:21.656Z,69.30
2018-04-25T01:40:00.580Z,69.50
2018-04-25T01:42:44.546Z,69.50
2018-04-25T01:48:35.332Z,69.30
2018-04-25T01:51:03.098Z,69.80
2018-04-25T01:53:42.655Z,69.70
2018-04-25T01:56:22.149Z,69.60
2018-04-25T01:59:01.565Z,69.80
2018-04-25T02:01:28.538Z,70.10
2018-04-25T02:03:57.416Z,70.30
2018-04-25T02:06:24.897Z,70.30
2018-04-25T02:08:52.353Z,70.60
2018-04-25T02:11:19.812Z,70.90
2018-04-25T02:13:47.279Z,70.90
2018-04-25T02:16:14.848Z,70.90
2018-04-25T02:18:42.409Z,70.80
2018-04-25T02:21:09.873Z,70.80
2018-04-25T02:23:37.336Z,70.50
2018-04-25T02:26:04.885Z,70.50
2018-04-25T02:28:32.342Z,70.60
2018-04-25T02:30:59.903Z,70.80
2018-04-25T02:33:27.458Z,70.90
2018-04-25T02:35:54.916Z,71.10
2018-04-25T02:38:22.378Z,71.70
2018-04-25T02:40:49.950Z,71.60
2018-04-25T02:43:17.408Z,72.00
2018-04-25T02:45:44.873Z,72.10
2018-04-25T02:48:13.109Z,72.30
2018-04-25T02:50:40.573Z,72.30
2018-04-25T02:53:08.039Z,72.30
2018-04-25T02:55:35.492Z,72.40
2018-04-25T02:58:03.075Z,72.40
2018-04-25T03:00:30.625Z,72.70
2018-04-25T03:02:58.185Z,72.80
2018-04-25T03:05:25.650Z,72.90
2018-04-25T03:07:53.117Z,73.30
2018-04-25T03:10:20.669Z,73.10
2018-04-25T03:12:48.133Z,73.20
2018-04-25T03:15:15.593Z,73.30
2018-04-25T03:17:43.150Z,73.40
2018-04-25T03:20:10.708Z,73.20
2018-04-25T03:22:38.354Z,73.50
2018-04-25T03:25:05.816Z,73.70
2018-04-25T03:27:33.273Z,73.60
2018-04-25T03:30:00.741Z,73.80
2018-04-25T03:32:28.296Z,73.80
2018-04-25T03:34:55.752Z,73.30
2018-04-25T03:37:23.317Z,73.60
2018-04-25T03:39:50.772Z,73.60
2018-04-25T03:42:18.228Z,73.30
2018-04-25T03:44:45.791Z,73.60
2018-04-25T03:47:13.279Z,73.50
2018-04-25T03:49:40.740Z,73.30
2018-04-25T03:52:08.960Z,73.00
2018-04-25T03:54:36.447Z,73.00
2018-04-25T03:57:04.004Z,73.20
2018-04-25T03:59:31.561Z,73.00
2018-04-25T04:01:59.121Z,72.70
2018-04-25T04:04:26.576Z,72.90
2018-04-25T04:06:54.062Z,72.80
2018-04-25T04:09:21.496Z,72.80
2018-04-25T04:11:49.057Z,72.80
2018-04-25T04:14:16.569Z,73.20
2018-04-25T04:16:43.985Z,73.30
2018-04-25T04:19:12.312Z,73.20
2018-04-25T04:21:39.761Z,73.10
2018-04-25T04:24:08.124Z,72.90
2018-04-25T04:26:36.353Z,73.70
2018-04-25T04:29:03.817Z,73.70
2018-04-25T04:31:31.277Z,73.60
2018-04-25T04:33:58.729Z,74.10
2018-04-25T04:36:26.296Z,74.10
2018-04-25T04:38:53.770Z,74.30
2018-04-25T04:41:21.225Z,74.40
2018-04-25T04:43:48.776Z,74.20
2018-04-25T04:46:16.332Z,73.60
2018-04-25T04:48:43.896Z,73.60
2018-04-25T04:51:11.367Z,73.80
2018-04-25T04:53:38.821Z,73.10
2018-04-25T04:56:06.285Z,72.40
2018-04-25T04:58:33.828Z,73.20
2018-04-25T05:01:01.288Z,73.40
2018-04-25T05:03:29.512Z,74.50
2018-04-25T05:05:56.977Z,74.30
2018-04-25T05:08:24.524Z,73.90
2018-04-25T05:10:51.900Z,74.30
2018-04-25T05:13:19.398Z,74.30
2018-04-25T05:15:46.861Z,74.40
2018-04-25T05:18:15.195Z,72.80
2018-04-25T05:20:42.640Z,72.70
2018-04-25T05:23:10.104Z,72.20
2018-04-25T05:25:37.608Z,71.50
2018-04-25T05:28:05.174Z,70.30
2018-04-25T05:30:32.729Z,69.80
2018-04-25T05:33:00.194Z,68.90
2018-04-25T05:35:27.655Z,68.50
2018-04-25T05:37:55.920Z,68.40
2018-04-25T05:40:23.389Z,68.40
2018-04-25T05:42:50.967Z,68.80
2018-04-25T05:45:18.429Z,68.70
2018-04-25T05:47:46.669Z,67.60
2018-04-25T05:50:14.116Z,67.50
2018-04-25T05:52:41.576Z,66.60
2018-04-25T05:55:09.034Z,65.50
2018-04-25T05:57:36.508Z,64.20
2018-04-25T06:00:03.974Z,63.10
2018-04-25T06:02:31.529Z,62.60
2018-04-25T06:04:59.093Z,62.10
2018-04-25T06:07:26.650Z,61.70
2018-04-25T06:09:54.108Z,61.30
2018-04-25T06:12:21.690Z,61.10
2018-04-25T06:14:49.132Z,60.10
2018-04-25T06:17:16.600Z,60.20
2018-04-25T06:19:44.057Z,59.80
2018-04-25T06:22:11.523Z,59.60
2018-04-25T06:24:39.757Z,59.00
2018-04-25T06:27:07.241Z,58.90
2018-04-25T06:29:34.700Z,58.50
2018-04-25T06:32:02.252Z,58.60
2018-04-25T06:34:29.717Z,56.70
2018-04-25T06:36:57.185Z,56.50
2018-04-25T06:39:24.755Z,56.30
2018-04-25T06:41:52.207Z,56.60
2018-04-25T06:44:19.666Z,55.00
2018-04-25T06:46:47.928Z,53.70
2018-04-25T06:49:15.397Z,53.50
2018-04-25T06:51:43.652Z,52.10
2018-04-25T06:54:11.221Z,52.00
2018-04-25T06:56:38.774Z,52.00
2018-04-25T06:59:06.953Z,51.70
2018-04-25T07:01:34.511Z,51.50
2018-04-25T07:04:01.973Z,51.70
2018-04-25T07:06:29.538Z,51.50
2018-04-25T07:08:57.004Z,50.80
2018-04-25T07:11:24.546Z,49.90
2018-04-25T07:13:52.009Z,49.80
2018-04-25T07:16:19.569Z,50.40
2018-04-25T07:18:47.131Z,50.40
2018-04-25T07:21:14.589Z,50.30
2018-04-25T07:23:42.055Z,50.60
2018-04-25T07:26:09.508Z,50.60
2018-04-25T07:28:36.978Z,51.50
2018-04-25T07:31:04.440Z,50.90
2018-04-25T07:33:31.994Z,49.50
2018-04-25T07:35:59.543Z,50.10
2018-04-25T07:38:27.005Z,50.20
2018-04-25T07:40:54.473Z,49.90
2018-04-25T07:43:21.932Z,49.60
2018-04-25T07:45:49.477Z,50.30
2018-04-25T07:48:16.941Z,49.40
2018-04-25T07:50:44.460Z,49.80
2018-04-25T07:53:11.957Z,49.80
2018-04-25T07:55:39.513Z,49.50
2018-04-25T07:58:06.972Z,49.10
2018-04-25T08:00:34.432Z,49.50
2018-04-25T08:03:01.905Z,48.80
2018-04-25T08:05:29.360Z,48.00
2018-04-25T08:07:56.965Z,48.20
2018-04-25T08:10:24.525Z,49.10
2018-04-25T08:13:03.685Z,48.30
2018-04-25T08:15:43.038Z,47.20
2018-04-25T08:18:22.360Z,47.00
2018-04-25T08:23:55.433Z,46.50
2018-04-25T08:26:22.894Z,45.80
2018-04-25T08:28:50.357Z,44.40
2018-04-25T08:31:17.817Z,44.70
2018-04-25T08:33:45.289Z,45.30
2018-04-25T08:36:12.777Z,45.50
2018-04-25T08:38:40.229Z,45.10
2018-04-25T08:41:07.693Z,45.00
2018-04-25T08:43:35.155Z,44.80
2018-04-25T08:46:02.712Z,43.90
2018-04-25T08:48:30.169Z,44.10
2018-04-25T08:50:57.636Z,43.80
2018-04-25T08:53:25.185Z,44.10
2018-04-25T08:55:52.752Z,44.30
2018-04-25T08:58:20.212Z,43.90
2018-04-25T09:00:47.676Z,43.50
2018-04-25T09:03:15.281Z,43.50
2018-04-25T09:05:42.743Z,42.90
2018-04-25T09:08:10.236Z,42.30
2018-04-25T09:10:37.796Z,41.40
2018-04-25T09:13:05.365Z,41.60
2018-04-25T09:15:32.893Z,40.60
2018-04-25T09:18:00.384Z,40.10
2018-04-25T09:20:27.945Z,40.60
2018-04-25T09:22:55.401Z,40.50
2018-04-25T09:25:22.865Z,39.70
2018-04-25T09:27:50.417Z,39.50
2018-04-25T09:30:17.975Z,39.90
2018-04-25T09:32:45.532Z,39.10
2018-04-25T09:35:12.993Z,38.60
2018-04-25T09:37:40.553Z,38.60
2018-04-25T09:40:08.108Z,38.00
2018-04-25T09:42:35.677Z,37.70
2018-04-25T09:45:03.239Z,39.30
2018-04-25T09:47:30.714Z,39.10
2018-04-25T09:49:58.257Z,38.50
2018-04-25T09:52:25.709Z,38.50
2018-04-25T09:54:53.174Z,38.40
2018-04-25T09:57:20.729Z,39.10
2018-04-25T09:59:48.193Z,38.30
2018-04-25T10:02:21.225Z,38.30
2018-04-25T10:04:48.741Z,38.80
2018-04-25T10:07:16.214Z,38.60
2018-04-25T10:09:43.685Z,37.70
2018-04-25T10:12:11.908Z,38.20
2018-04-25T10:14:39.373Z,38.10
2018-04-25T10:17:06.840Z,37.10
2018-04-25T10:19:34.310Z,36.60
2018-04-25T10:22:01.871Z,36.80
2018-04-25T10:24:29.428Z,37.70
2018-04-25T10:26:56.991Z,36.50
2018-04-25T10:29:24.549Z,36.80
2018-04-25T10:31:52.111Z,37.30
2018-04-25T10:34:19.571Z,37.50
2018-04-25T10:36:47.028Z,37.10
2018-04-25T10:39:14.488Z,36.60
2018-04-25T10:41:41.949Z,36.90
2018-04-25T10:44:09.527Z,37.00
2018-04-25T10:46:37.065Z,37.10
2018-04-25T10:49:04.617Z,37.10
2018-04-25T10:51:32.194Z,36.80
2018-04-25T10:53:59.644Z,37.10
2018-04-25T10:56:27.100Z,37.00
2018-04-25T10:58:54.556Z,35.90
2018-04-25T11:01:22.021Z,35.60
2018-04-25T11:03:49.481Z,36.60
2018-04-25T11:06:17.034Z,35.70
2018-04-25T11:08:44.598Z,35.50
2018-04-25T11:11:12.070Z,35.00
2018-04-25T11:13:39.530Z,35.30
2018-04-25T11:16:06.987Z,35.80
2018-04-25T11:18:35.255Z,35.50
2018-04-25T11:21:02.712Z,35.50
2018-04-25T11:23:30.263Z,34.70
2018-04-25T11:25:57.817Z,34.90
2018-04-25T11:28:25.426Z,35.10
2018-04-25T11:30:52.937Z,35.70
2018-04-25T11:33:20.404Z,34.90
2018-04-25T11:35:47.965Z,35.70
2018-04-25T11:38:15.426Z,35.60
2018-04-25T11:40:42.972Z,34.60
2018-04-25T11:43:10.540Z,35.00
2018-04-25T11:45:37.996Z,35.20
2018-04-25T11:48:05.457Z,34.90
2018-04-25T11:50:33.017Z,34.30
2018-04-25T11:53:00.477Z,34.70
2018-04-25T11:55:28.033Z,35.00
2018-04-25T11:57:55.597Z,35.30
2018-04-25T12:00:23.052Z,34.00
2018-04-25T12:02:50.659Z,34.10
2018-04-25T12:05:18.173Z,34.60
2018-04-25T12:07:45.729Z,34.50
2018-04-25T12:10:13.188Z,33.90
2018-04-25T12:12:40.652Z,35.30
2018-04-25T12:15:08.105Z,34.80
2018-04-25T12:17:35.668Z,34.10
2018-04-25T12:20:03.129Z,34.20
2018-04-25T12:22:31.404Z,33.90
2018-04-25T12:24:58.964Z,33.90
2018-04-25T12:27:26.524Z,34.10
2018-04-25T12:29:54.086Z,33.80
2018-04-25T12:32:21.706Z,34.30
2018-04-25T12:34:49.216Z,33.80
2018-04-25T12:37:16.764Z,34.50
2018-04-25T12:39:44.324Z,33.80
2018-04-25T12:42:11.888Z,33.90
2018-04-25T12:44:39.445Z,33.50
2018-04-25T12:47:06.982Z,33.60
2018-04-25T12:49:34.461Z,33.30
2018-04-25T12:52:01.924Z,33.60
2018-04-25T12:54:29.389Z,33.70
2018-04-25T12:56:57.662Z,34.20
2018-04-25T12:59:25.200Z,34.10
2018-04-25T13:01:52.673Z,32.10
2018-04-25T13:04:20.137Z,32.10
2018-04-25T13:06:47.593Z,33.00
2018-04-25T13:09:15.874Z,33.60
2018-04-25T13:11:43.341Z,33.50
2018-04-25T13:14:10.885Z,32.20
2018-04-25T13:16:38.453Z,32.30
2018-04-25T13:19:05.913Z,32.10
2018-04-25T13:21:33.469Z,33.30
2018-04-25T13:24:01.747Z,34.10
2018-04-25T13:26:29.208Z,34.00
2018-04-25T13:28:56.681Z,33.60
2018-04-25T13:31:24.223Z,34.00
2018-04-25T13:33:51.741Z,33.00
2018-04-25T13:36:19.236Z,33.00
2018-04-25T13:38:46.800Z,33.40
2018-04-25T13:41:14.259Z,33.20
2018-04-25T13:43:41.721Z,33.20
2018-04-25T13:46:09.192Z,33.70
2018-04-25T13:48:36.648Z,33.90
2018-04-25T13:51:04.113Z,33.20
2018-04-25T13:53:32.336Z,34.80
2018-04-25T13:55:59.824Z,34.40
2018-04-25T13:58:27.395Z,34.50
2018-04-25T14:00:54.960Z,34.50
2018-04-25T14:03:22.504Z,34.50
2018-04-25T14:05:50.081Z,34.50
2018-04-25T14:08:17.628Z,34.30
2018-04-25T14:10:45.090Z,34.20
2018-04-25T14:13:12.565Z,34.20
2018-04-25T14:15:40.029Z,34.80
2018-04-25T14:18:08.257Z,35.90
2018-04-25T14:20:35.716Z,35.90
2018-04-25T14:23:03.199Z,36.00
2018-04-25T14:25:30.756Z,35.20
2018-04-25T14:27:58.221Z,35.00
2018-04-25T14:30:25.785Z,35.60
2018-04-25T14:32:53.340Z,34.60
2018-04-25T14:35:20.808Z,34.50
2018-04-25T14:37:48.273Z,34.50
2018-04-25T14:40:16.508Z,34.40
2018-04-25T14:42:43.979Z,34.40
2018-04-25T14:45:11.449Z,34.60
2018-04-25T14:47:38.913Z,34.80
2018-04-25T14:50:07.181Z,35.50
2018-04-25T14:52:34.665Z,35.50
2018-04-25T14:55:02.925Z,34.90
2018-04-25T14:57:30.477Z,34.90
2018-04-25T14:59:57.932Z,35.00
2018-04-25T15:02:25.405Z,35.30
2018-04-25T15:04:52.951Z,35.40
2018-04-25T15:07:20.509Z,35.70
2018-04-25T15:09:47.981Z,36.30
2018-04-25T15:12:15.450Z,36.60
2018-04-25T15:14:42.993Z,36.20
2018-04-25T15:17:10.550Z,37.00
2018-04-25T15:19:38.074Z,36.50
2018-04-25T15:22:05.576Z,36.80
2018-04-25T15:24:33.128Z,37.20
2018-04-25T15:27:00.588Z,37.40
2018-04-25T15:29:28.818Z,37.40
2018-04-25T15:31:56.382Z,37.40
2018-04-25T15:34:23.834Z,37.60
2018-04-25T15:36:51.345Z,37.40
2018-04-25T15:39:18.905Z,37.70
2018-04-25T15:41:47.129Z,37.30
2018-04-25T15:44:14.604Z,37.30
2018-04-25T15:46:42.094Z,37.80
2018-04-25T15:49:09.528Z,38.10
2018-04-25T15:51:36.991Z,37.60
2018-04-25T15:54:04.448Z,38.00
2018-04-25T15:56:31.929Z,38.60
2018-04-25T15:58:59.396Z,38.70
2018-04-25T16:01:26.860Z,39.40
2018-04-25T16:03:54.417Z,39.00
2018-04-25T16:06:21.881Z,39.30
2018-04-25T16:08:49.344Z,39.80
2018-04-25T16:11:17.605Z,39.50
2018-04-25T16:13:45.069Z,39.40
2018-04-25T16:16:12.617Z,39.30
2018-04-25T16:18:40.133Z,40.10
2018-04-25T16:21:07.617Z,39.90
2018-04-25T16:23:35.092Z,39.60
2018-04-25T16:26:02.553Z,39.40
2018-04-25T16:28:30.120Z,39.80
2018-04-25T16:30:57.672Z,39.50
2018-04-25T16:33:25.143Z,40.20
2018-04-25T16:35:52.598Z,40.10
2018-04-25T16:38:20.152Z,40.50
2018-04-25T16:40:47.713Z,40.40
2018-04-25T16:43:15.948Z,40.00
2018-04-25T16:45:43.408Z,40.00
2018-04-25T16:48:10.871Z,39.90
2018-04-25T16:50:38.379Z,40.50
2018-04-25T16:53:05.925Z,40.40
2018-04-25T16:55:33.489Z,40.70
2018-04-25T16:58:00.953Z,41.20
2018-04-25T17:00:28.420Z,41.00
2018-04-25T17:02:56.689Z,41.40
2018-04-25T17:05:24.920Z,41.60
2018-04-25T17:07:52.385Z,42.30
2018-04-25T17:10:19.849Z,41.40
2018-04-25T17:12:47.324Z,41.30
2018-04-25T17:15:14.785Z,41.40
2018-04-25T17:17:42.258Z,41.20
2018-04-25T17:20:09.739Z,41.50
2018-04-25T17:22:37.977Z,41.50
2018-04-25T17:25:05.443Z,41.40
2018-04-25T17:27:32.931Z,41.30
2018-04-25T17:30:01.153Z,41.70
2018-04-25T17:32:28.621Z,41.70
2018-04-25T17:34:56.185Z,42.00
2018-04-25T17:37:23.648Z,42.20
2018-04-25T17:39:51.129Z,42.40
2018-04-25T17:42:19.408Z,42.40
2018-04-25T17:44:46.850Z,42.40
2018-04-25T17:47:14.317Z,42.60
2018-04-25T17:49:42.561Z,42.70
2018-04-25T17:52:10.032Z,42.00
2018-04-25T17:54:37.494Z,42.20
2018-04-25T17:57:05.059Z,42.40
2018-04-25T17:59:32.618Z,43.00
2018-04-25T18:02:00.104Z,42.90
2018-04-25T18:04:28.341Z,43.50
2018-04-25T18:06:55.828Z,43.50
2018-04-25T18:09:24.070Z,44.30
2018-04-25T18:11:51.552Z,44.30
2018-04-25T18:14:19.028Z,44.80
2018-04-25T18:16:47.276Z,45.90
2018-04-25T18:19:14.732Z,45.80
2018-04-25T18:21:42.204Z,46.50
2018-04-25T18:24:10.433Z,47.30
2018-04-25T18:26:37.946Z,47.30
2018-04-25T18:29:05.421Z,47.80
2018-04-25T18:31:33.641Z,48.30
2018-04-25T18:34:01.109Z,48.30
2018-04-25T18:36:28.585Z,48.50
2018-04-25T18:38:56.048Z,48.80
2018-04-25T18:41:23.517Z,49.20
2018-04-25T18:43:50.996Z,49.40
2018-04-25T18:46:19.218Z,49.80
2018-04-25T18:48:46.682Z,49.90
2018-04-25T18:51:14.253Z,50.00
2018-04-25T18:53:41.817Z,50.10
2018-04-25T18:56:10.093Z,50.60
2018-04-25T18:58:37.708Z,50.60
2018-04-25T19:01:05.205Z,51.00
2018-04-25T19:03:33.461Z,51.40
2018-04-25T19:06:00.928Z,51.30
2018-04-25T19:08:28.393Z,51.50
2018-04-25T19:10:55.856Z,51.60
2018-04-25T19:13:23.313Z,52.10
2018-04-25T19:15:50.788Z,52.10
2018-04-25T19:18:19.055Z,52.70
2018-04-25T19:20:46.520Z,52.60
2018-04-25T19:23:13.994Z,53.00
2018-04-25T19:25:42.220Z,53.50
2018-04-25T19:28:09.685Z,53.50
2018-04-25T19:30:37.160Z,53.70
2018-04-25T19:33:04.720Z,53.50
2018-04-25T19:35:32.191Z,53.80
2018-04-25T19:37:59.646Z,53.80
2018-04-25T19:40:27.105Z,54.00
2018-04-25T19:42:54.657Z,54.30
2018-04-25T19:45:22.932Z,54.70
2018-04-25T19:47:50.406Z,54.70
2018-04-25T19:50:17.864Z,54.90
2018-04-25T19:52:45.325Z,55.00
2018-04-25T19:55:12.785Z,55.30
2018-04-25T19:57:41.040Z,55.40
2018-04-25T20:00:08.514Z,55.90
2018-04-25T20:02:35.982Z,56.20
2018-04-25T20:05:04.204Z,56.30
2018-04-25T20:07:31.693Z,56.30
2018-04-25T20:09:59.165Z,56.60
2018-04-25T20:12:26.633Z,56.60
2018-04-25T20:14:54.898Z,57.00
2018-04-25T20:17:22.456Z,56.30
2018-04-25T20:19:50.013Z,56.80
2018-04-25T20:22:17.573Z,56.70
2018-04-25T20:24:45.053Z,57.20
2018-04-25T20:27:13.280Z,56.70
2018-04-25T20:29:40.793Z,56.70
2018-04-25T20:32:08.328Z,57.30
2018-04-25T20:34:35.897Z,57.70
2018-04-25T20:37:03.456Z,58.00
2018-04-25T20:39:30.930Z,58.50
2018-04-25T20:41:59.172Z,58.80
2018-04-25T20:44:26.637Z,58.70
2018-04-25T20:46:54.197Z,59.00
2018-04-25T20:49:21.673Z,59.30
2018-04-25T20:51:49.932Z,60.90
2018-04-25T20:54:17.392Z,60.10
2018-04-25T20:56:44.968Z,60.30
2018-04-25T20:59:12.421Z,60.40
2018-04-25T21:01:39.973Z,61.40
2018-04-25T21:04:08.245Z,60.60
2018-04-25T21:06:35.716Z,60.60
2018-04-25T21:09:03.177Z,60.70
2018-04-25T21:11:30.635Z,61.40
2018-04-25T21:13:58.092Z,61.40
2018-04-25T21:16:25.642Z,61.70
2018-04-25T21:18:53.193Z,60.90
2018-04-25T21:21:20.761Z,61.20
2018-04-25T21:23:48.218Z,61.50
2018-04-25T21:26:15.797Z,61.80
2018-04-25T21:28:44.045Z,61.70
2018-04-25T21:31:11.505Z,61.60
2018-04-25T21:33:38.960Z,62.10
2018-04-25T21:36:06.417Z,62.40
2018-04-25T21:38:33.877Z,63.20
2018-04-25T21:41:01.453Z,64.80
2018-04-25T21:43:29.005Z,67.00
2018-04-25T21:45:56.564Z,67.90
2018-04-25T21:48:24.120Z,68.30
2018-04-25T21:50:51.686Z,69.80
2018-04-25T21:53:19.249Z,69.40
2018-04-25T21:55:46.732Z,70.20
2018-04-25T21:58:14.984Z,72.00
2018-04-25T22:00:42.549Z,72.00
2018-04-25T22:03:10.108Z,73.20
2018-04-25T22:05:37.669Z,72.10
2018-04-25T22:08:05.124Z,73.40
2018-04-25T22:10:32.597Z,74.10
2018-04-25T22:13:00.060Z,74.70
2018-04-25T22:15:28.288Z,75.10
2018-04-25T22:17:55.760Z,74.80
2018-04-25T22:20:23.237Z,76.10
2018-04-25T22:22:50.701Z,76.30
2018-04-25T22:25:18.250Z,75.90
2018-04-25T22:27:45.713Z,76.50
2018-04-25T22:30:13.172Z,76.50
2018-04-25T22:32:40.633Z,76.70
2018-04-25T22:35:08.190Z,77.00
2018-04-25T22:37:35.649Z,77.60
2018-04-25T22:40:03.211Z,78.30
2018-04-25T22:42:30.668Z,79.30
2018-04-25T22:44:58.137Z,79.50
2018-04-25T22:47:25.605Z,79.70
2018-04-25T22:49:53.832Z,80.10
2018-04-25T22:52:21.308Z,80.00
2018-04-25T22:54:48.774Z,80.20
2018-04-25T22:57:16.228Z,80.00
2018-04-25T22:59:43.794Z,80.50
2018-04-25T23:02:11.261Z,80.50
2018-04-25T23:04:38.729Z,81.40
2018-04-25T23:07:06.965Z,81.00
2018-04-25T23:09:34.425Z,80.90
2018-04-25T23:12:01.882Z,81.70
2018-04-25T23:14:29.356Z,81.30
2018-04-25T23:16:56.809Z,80.60
2018-04-25T23:19:24.368Z,80.40
2018-04-25T23:21:51.941Z,80.20
2018-04-25T23:24:19.496Z,80.60
2018-04-25T23:26:47.061Z,80.70
2018-04-25T23:29:14.533Z,80.70
2018-04-25T23:31:42.073Z,80.40
2018-04-25T23:34:09.533Z,80.40
2018-04-25T23:36:37.004Z,80.30
2018-04-25T23:39:04.560Z,80.10
2018-04-25T23:41:32.112Z,79.00
2018-04-25T23:43:59.573Z,79.20
2018-04-25T23:46:32.964Z,78.20
2018-04-25T23:49:00.529Z,78.30
2018-04-25T23:51:28.084Z,77.20
2018-04-25T23:53:55.648Z,76.60
2018-04-25T23:56:23.116Z,76.20
2018-04-25T23:58:50.576Z,75.70
